createdAt,value
2023-01-27T00:02:23.917Z,16.80
2023-01-27T00:05:11.117Z,15.53
2023-01-27T00:07:58.844Z,14.20
2023-01-27T00:10:44.746Z,15.57
2023-01-27T00:13:32.200Z,14.80
2023-01-27T00:16:18.133Z,14.70
2023-01-27T00:19:03.431Z,15.40
2023-01-27T00:22:07.334Z,16.50
2023-01-27T00:24:52.521Z,14.13
2023-01-27T00:27:38.343Z,16.37
2023-01-27T00:30:23.985Z,14.40
2023-01-27T00:33:27.758Z,14.30
2023-01-27T00:36:13.391Z,14.45
2023-01-27T00:38:58.978Z,14.20
2023-01-27T00:41:44.478Z,15.37
2023-01-27T00:44:30.040Z,13.53
2023-01-27T00:47:15.584Z,14.30
2023-01-27T00:50:01.442Z,12.83
2023-01-27T00:52:47.189Z,14.53
2023-01-27T00:55:32.896Z,15.83
2023-01-27T00:58:18.238Z,14.03
2023-01-27T01:01:08.021Z,13.13
2023-01-27T01:03:53.441Z,14.30
2023-01-27T01:06:38.579Z,14.37
2023-01-27T01:09:24.581Z,14.40
2023-01-27T01:12:09.857Z,14.70
2023-01-27T01:14:55.431Z,15.40
2023-01-27T01:17:41.231Z,14.17
2023-01-27T01:20:26.801Z,17.07
2023-01-27T01:23:13.780Z,14.10
2023-01-27T01:25:59.804Z,14.67
2023-01-27T01:28:46.450Z,13.37
2023-01-27T01:31:31.928Z,16.30
2023-01-27T01:34:17.659Z,17.50
2023-01-27T01:37:03.333Z,17.10
2023-01-27T01:39:49.220Z,16.67
2023-01-27T01:42:53.069Z,15.67
2023-01-27T01:45:51.484Z,16.10
2023-01-27T01:48:47.840Z,16.53
2023-01-27T01:51:41.667Z,17.30
2023-01-27T01:54:41.604Z,17.05
2023-01-27T01:57:33.633Z,17.17
2023-01-27T02:00:19.555Z,17.57
2023-01-27T02:03:04.928Z,18.13
2023-01-27T02:05:53.026Z,17.23
2023-01-27T02:08:42.512Z,16.90
2023-01-27T02:11:28.812Z,16.60
2023-01-27T02:14:16.286Z,18.20
2023-01-27T02:17:04.048Z,20.30
2023-01-27T02:20:03.361Z,17.07
2023-01-27T02:22:51.621Z,18.93
2023-01-27T02:25:37.024Z,19.53
2023-01-27T02:28:25.811Z,17.17
2023-01-27T02:31:11.647Z,20.10
2023-01-27T02:34:04.716Z,19.03
2023-01-27T02:37:01.132Z,17.07
2023-01-27T02:39:48.646Z,17.30
2023-01-27T02:42:34.204Z,18.80
2023-01-27T02:45:19.692Z,18.80
2023-01-27T02:48:05.337Z,20.87
2023-01-27T02:50:50.581Z,18.33
2023-01-27T02:53:36.161Z,20.27
2023-01-27T02:56:21.578Z,21.07
2023-01-27T02:59:06.976Z,17.23
2023-01-27T03:01:52.248Z,22.27
2023-01-27T03:04:38.896Z,18.83
2023-01-27T03:07:24.736Z,20.67
2023-01-27T03:10:10.476Z,19.53
2023-01-27T03:12:56.054Z,17.23
2023-01-27T03:16:00.037Z,19.27
2023-01-27T03:18:47.427Z,20.03
2023-01-27T03:21:32.859Z,19.50
2023-01-27T03:24:19.011Z,18.20
2023-01-27T03:27:04.648Z,17.67
2023-01-27T03:29:55.983Z,17.57
2023-01-27T03:32:46.770Z,22.97
2023-01-27T03:35:38.746Z,18.77
2023-01-27T03:38:42.539Z,19.07
2023-01-27T03:41:46.325Z,17.17
2023-01-27T03:44:50.207Z,18.77
2023-01-27T03:47:35.518Z,20.77
2023-01-27T03:50:21.078Z,17.97
2023-01-27T03:53:07.182Z,18.13
2023-01-27T03:55:52.674Z,19.70
2023-01-27T03:58:38.214Z,20.53
2023-01-27T04:01:24.521Z,20.90
2023-01-27T04:04:30.148Z,20.30
2023-01-27T04:07:19.954Z,19.83
2023-01-27T04:10:06.570Z,22.40
2023-01-27T04:12:52.167Z,19.87
2023-01-27T04:15:38.408Z,24.20
2023-01-27T04:18:23.555Z,21.53
2023-01-27T04:21:09.074Z,20.70
2023-01-27T04:23:55.204Z,20.67
2023-01-27T04:26:41.800Z,20.33
2023-01-27T04:29:30.507Z,20.73
2023-01-27T04:32:16.174Z,20.93
2023-01-27T04:35:01.469Z,21.50
2023-01-27T04:37:47.146Z,17.23
2023-01-27T04:40:32.558Z,19.20
2023-01-27T04:43:18.559Z,21.20
2023-01-27T04:46:04.644Z,20.00
2023-01-27T04:48:50.425Z,19.00
2023-01-27T04:51:35.698Z,21.17
2023-01-27T04:54:21.687Z,22.37
2023-01-27T04:57:07.078Z,19.53
2023-01-27T04:59:52.308Z,21.97
2023-01-27T05:02:37.820Z,19.33
2023-01-27T05:05:23.393Z,20.30
2023-01-27T05:08:10.312Z,23.00
2023-01-27T05:10:56.039Z,19.37
2023-01-27T05:13:41.587Z,19.50
2023-01-27T05:16:27.686Z,21.97
2023-01-27T05:19:13.214Z,20.80
2023-01-27T05:21:58.354Z,19.67
2023-01-27T05:24:43.855Z,20.70
2023-01-27T05:27:29.542Z,19.90
2023-01-27T05:30:15.239Z,23.23
2023-01-27T05:33:00.451Z,25.30
2023-01-27T05:35:46.002Z,21.27
2023-01-27T05:38:31.594Z,19.97
2023-01-27T05:41:18.766Z,20.20
2023-01-27T05:44:04.848Z,19.20
2023-01-27T05:46:50.350Z,16.43
2023-01-27T05:49:35.810Z,18.30
2023-01-27T05:52:21.155Z,18.50
2023-01-27T05:55:07.075Z,18.87
2023-01-27T05:57:52.631Z,16.83
2023-01-27T06:00:38.100Z,19.70
2023-01-27T06:03:24.083Z,16.67
2023-01-27T06:06:10.322Z,17.57
2023-01-27T06:08:55.897Z,16.77
2023-01-27T06:11:41.343Z,15.37
2023-01-27T06:14:26.890Z,16.73
2023-01-27T06:17:12.529Z,16.83
2023-01-27T06:19:57.886Z,15.83
2023-01-27T06:22:43.298Z,15.27
2023-01-27T06:25:28.849Z,15.80
2023-01-27T06:28:28.078Z,17.67
2023-01-27T06:31:16.944Z,15.40
2023-01-27T06:34:02.395Z,16.67
2023-01-27T06:36:48.642Z,14.53
2023-01-27T06:39:33.887Z,17.87
2023-01-27T06:42:19.363Z,16.27
2023-01-27T06:45:05.547Z,16.60
2023-01-27T06:47:56.171Z,17.70
2023-01-27T06:50:42.703Z,16.70
2023-01-27T06:53:28.027Z,15.17
2023-01-27T06:56:14.395Z,17.17
2023-01-27T06:59:00.974Z,16.47
2023-01-27T07:01:46.612Z,15.73
2023-01-27T07:04:32.095Z,14.47
2023-01-27T07:07:17.615Z,16.93
2023-01-27T07:10:03.975Z,15.83
2023-01-27T07:12:49.450Z,16.37
2023-01-27T07:15:35.546Z,15.20
2023-01-27T07:18:20.804Z,18.27
2023-01-27T07:21:06.588Z,16.43
2023-01-27T07:23:52.009Z,15.50
2023-01-27T07:26:37.534Z,17.63
2023-01-27T07:29:23.068Z,17.13
2023-01-27T07:32:08.609Z,17.13
2023-01-27T07:34:54.088Z,17.53
2023-01-27T07:37:40.000Z,16.60
2023-01-27T07:40:25.718Z,15.80
2023-01-27T07:43:11.755Z,16.47
2023-01-27T07:45:57.595Z,14.87
2023-01-27T07:48:42.674Z,16.67
2023-01-27T07:51:28.329Z,14.47
2023-01-27T07:54:14.015Z,17.17
2023-01-27T07:57:01.434Z,17.17
2023-01-27T07:59:47.018Z,15.97
2023-01-27T08:02:32.673Z,16.50
2023-01-27T08:05:18.576Z,18.17
2023-01-27T08:08:04.441Z,14.87
2023-01-27T08:10:51.396Z,16.40
2023-01-27T08:13:37.346Z,14.40
2023-01-27T08:16:22.983Z,17.87
2023-01-27T08:19:08.511Z,18.40
2023-01-27T08:21:54.091Z,17.17
2023-01-27T08:24:39.579Z,14.63
2023-01-27T08:27:25.248Z,15.87
2023-01-27T08:30:11.774Z,17.77
2023-01-27T08:32:57.260Z,15.97
2023-01-27T08:35:44.866Z,16.00
2023-01-27T08:38:30.071Z,16.70
2023-01-27T08:41:21.679Z,14.93
2023-01-27T08:44:07.666Z,17.57
2023-01-27T08:46:53.392Z,18.63
2023-01-27T08:49:38.657Z,16.67
2023-01-27T08:52:24.315Z,18.53
2023-01-27T08:55:09.998Z,15.60
2023-01-27T08:57:55.836Z,16.00
2023-01-27T09:00:41.194Z,15.00
2023-01-27T09:03:26.848Z,17.17
2023-01-27T09:06:13.880Z,17.37
2023-01-27T09:09:11.240Z,16.40
2023-01-27T09:11:57.048Z,18.47
2023-01-27T09:14:42.828Z,17.73
2023-01-27T09:17:28.448Z,16.93
2023-01-27T09:20:14.313Z,17.47
2023-01-27T09:23:00.129Z,16.13
2023-01-27T09:25:45.650Z,16.07
2023-01-27T09:28:31.264Z,21.20
2023-01-27T09:31:16.528Z,15.60
2023-01-27T09:34:01.986Z,16.37
2023-01-27T09:36:59.711Z,16.70
2023-01-27T09:39:52.816Z,17.20
2023-01-27T09:43:07.847Z,17.00
2023-01-27T09:46:16.991Z,15.30
2023-01-27T09:49:20.961Z,15.00
2023-01-27T09:52:46.733Z,14.03
2023-01-27T09:55:44.823Z,15.63
2023-01-27T09:58:36.189Z,13.70
2023-01-27T10:01:51.205Z,11.07
2023-01-27T10:04:47.179Z,14.05
2023-01-27T10:08:06.924Z,11.70
2023-01-27T10:11:08.789Z,10.70
2023-01-27T10:14:10.876Z,11.00
2023-01-27T10:17:37.738Z,13.73
2023-01-27T10:20:34.044Z,11.27
2023-01-27T10:23:39.655Z,12.07
2023-01-27T10:26:36.085Z,12.33
2023-01-27T10:29:25.001Z,12.83
2023-01-27T10:32:41.807Z,13.27
2023-01-27T10:35:34.827Z,13.13
2023-01-27T10:38:36.171Z,14.57
2023-01-27T10:41:27.370Z,13.60
2023-01-27T10:44:24.589Z,14.07
2023-01-27T10:47:25.600Z,13.97
2023-01-27T10:50:19.829Z,16.43
2023-01-27T10:53:46.320Z,20.00
2023-01-27T10:56:53.514Z,14.77
2023-01-27T11:00:18.020Z,15.97
2023-01-27T11:03:14.325Z,13.43
2023-01-27T11:06:04.562Z,16.57
2023-01-27T11:08:55.298Z,13.20
2023-01-27T11:11:45.694Z,15.23
2023-01-27T11:14:46.783Z,13.03
2023-01-27T11:17:44.773Z,15.63
2023-01-27T11:20:39.292Z,16.33
2023-01-27T11:23:30.582Z,16.90
2023-01-27T11:26:44.668Z,14.87
2023-01-27T11:29:41.052Z,16.67
2023-01-27T11:32:54.629Z,15.33
2023-01-27T11:35:40.259Z,14.00
2023-01-27T11:38:26.173Z,14.47
2023-01-27T11:41:11.613Z,14.53
2023-01-27T11:43:57.078Z,12.90
2023-01-27T11:46:43.524Z,14.77
2023-01-27T11:49:34.278Z,16.10
2023-01-27T11:52:22.196Z,14.03
2023-01-27T11:55:13.671Z,15.13
2023-01-27T11:58:14.821Z,14.07
2023-01-27T12:01:03.608Z,13.87
2023-01-27T12:03:58.693Z,14.63
2023-01-27T12:06:53.575Z,14.03
2023-01-27T12:09:41.346Z,15.00
2023-01-27T12:12:27.769Z,16.30
2023-01-27T12:15:16.633Z,13.20
2023-01-27T12:18:13.894Z,15.53
2023-01-27T12:21:01.599Z,15.47
2023-01-27T12:23:49.137Z,16.03
2023-01-27T12:26:40.643Z,18.43
2023-01-27T12:29:55.006Z,15.77
2023-01-27T12:32:43.055Z,13.95
2023-01-27T12:35:33.863Z,14.43
2023-01-27T12:38:33.235Z,15.63
2023-01-27T12:41:31.216Z,16.87
2023-01-27T12:44:18.381Z,17.13
2023-01-27T12:47:26.471Z,16.50
2023-01-27T12:50:27.899Z,15.30
2023-01-27T12:53:16.017Z,14.87
2023-01-27T12:56:09.415Z,15.93
2023-01-27T12:58:55.091Z,19.27
2023-01-27T13:01:41.960Z,15.87
2023-01-27T13:04:29.065Z,15.83
2023-01-27T13:07:19.028Z,19.03
2023-01-27T13:10:16.075Z,14.50
2023-01-27T13:13:01.815Z,15.20
2023-01-27T13:16:15.514Z,14.37
2023-01-27T13:19:01.768Z,15.17
2023-01-27T13:21:50.868Z,22.83
2023-01-27T13:24:42.547Z,23.33
2023-01-27T13:27:37.063Z,18.37
2023-01-27T13:30:31.297Z,19.30
2023-01-27T13:33:41.218Z,15.43
2023-01-27T13:36:40.849Z,12.80
2023-01-27T13:40:04.358Z,13.00
2023-01-27T13:43:06.041Z,15.17
2023-01-27T13:45:59.072Z,13.47
2023-01-27T13:48:48.617Z,11.50
2023-01-27T13:51:34.098Z,10.93
2023-01-27T13:54:19.442Z,11.50
2023-01-27T13:57:44.920Z,10.70
2023-01-27T14:03:30.990Z,10.33
2023-01-27T14:06:37.281Z,12.40
2023-01-27T14:09:47.394Z,12.10
2023-01-27T14:13:07.526Z,9.90
2023-01-27T14:16:06.047Z,10.47
2023-01-27T14:19:05.510Z,10.33
2023-01-27T14:22:19.450Z,9.10
2023-01-27T14:25:23.782Z,10.17
2023-01-27T14:28:16.751Z,8.57
2023-01-27T14:31:10.833Z,8.93
2023-01-27T14:34:08.722Z,10.43
2023-01-27T14:37:08.304Z,9.80
2023-01-27T14:40:15.591Z,8.27
2023-01-27T14:43:18.586Z,9.93
2023-01-27T14:46:34.930Z,9.93
2023-01-27T14:49:44.312Z,8.97
2023-01-27T14:52:47.693Z,11.17
2023-01-27T14:55:48.665Z,9.57
2023-01-27T14:59:00.284Z,9.23
2023-01-27T15:02:09.891Z,10.43
2023-01-27T15:05:17.145Z,10.67
2023-01-27T15:08:41.860Z,9.57
2023-01-27T15:11:51.389Z,11.03
2023-01-27T15:14:57.797Z,8.17
2023-01-27T15:17:53.112Z,12.23
2023-01-27T15:20:52.905Z,10.30
2023-01-27T15:24:04.600Z,11.23
2023-01-27T15:26:50.187Z,10.27
2023-01-27T15:29:35.886Z,10.70
2023-01-27T15:32:22.392Z,9.80
2023-01-27T15:35:36.308Z,12.07
2023-01-27T15:38:32.907Z,12.47
2023-01-27T15:41:18.523Z,10.33
2023-01-27T15:44:36.318Z,12.07
2023-01-27T15:47:28.450Z,11.70
2023-01-27T15:50:21.804Z,19.10
2023-01-27T15:53:29.591Z,11.03
2023-01-27T15:56:15.096Z,11.13
2023-01-27T15:59:05.149Z,10.43
2023-01-27T16:02:01.871Z,10.80
2023-01-27T16:05:13.781Z,10.27
2023-01-27T16:08:02.043Z,10.90
2023-01-27T16:10:47.806Z,10.63
2023-01-27T16:13:35.637Z,10.37
2023-01-27T16:16:20.910Z,10.50
2023-01-27T16:19:18.962Z,12.17
2023-01-27T16:22:07.226Z,9.77
2023-01-27T16:25:14.090Z,9.87
2023-01-27T16:28:11.738Z,9.67
2023-01-27T16:31:10.545Z,8.77
2023-01-27T16:33:59.832Z,10.07
2023-01-27T16:36:45.243Z,10.13
2023-01-27T16:39:46.271Z,9.57
2023-01-27T16:42:38.070Z,9.70
2023-01-27T16:45:40.060Z,9.53
2023-01-27T16:48:32.479Z,10.17
2023-01-27T16:51:26.513Z,11.33
2023-01-27T16:54:29.540Z,10.32
2023-01-27T16:57:36.527Z,9.93
2023-01-27T17:00:31.870Z,11.60
2023-01-27T17:03:21.555Z,11.63
2023-01-27T17:06:14.241Z,11.07
2023-01-27T17:08:59.672Z,9.57
2023-01-27T17:11:45.180Z,11.37
2023-01-27T17:14:38.359Z,11.03
2023-01-27T17:17:26.292Z,10.87
2023-01-27T17:20:23.477Z,10.90
2023-01-27T17:23:22.007Z,10.17
2023-01-27T17:26:14.216Z,10.93
2023-01-27T17:29:00.169Z,13.47
2023-01-27T17:31:45.987Z,11.53
2023-01-27T17:34:32.569Z,15.67
2023-01-27T17:37:20.906Z,11.03
2023-01-27T17:40:15.117Z,9.07
2023-01-27T17:43:00.480Z,12.02
2023-01-27T17:45:47.545Z,14.03
2023-01-27T17:48:35.009Z,10.30
2023-01-27T17:51:25.109Z,10.70
2023-01-27T17:54:32.675Z,12.03
2023-01-27T17:57:32.449Z,13.70
2023-01-27T18:00:38.111Z,11.07
2023-01-27T18:03:28.415Z,11.83
2023-01-27T18:06:15.196Z,11.73
2023-01-27T18:09:14.651Z,11.87
2023-01-27T18:12:04.169Z,13.13
2023-01-27T18:14:49.673Z,11.80
2023-01-27T18:17:35.219Z,15.17
2023-01-27T18:20:36.147Z,14.27
2023-01-27T18:23:28.740Z,11.90
2023-01-27T18:26:17.367Z,12.93
2023-01-27T18:29:07.520Z,14.03
2023-01-27T18:32:07.790Z,13.10
2023-01-27T18:34:56.402Z,13.93
2023-01-27T18:37:51.912Z,14.60
2023-01-27T18:40:37.672Z,14.43
2023-01-27T18:43:23.327Z,14.07
2023-01-27T18:46:11.943Z,14.43
2023-01-27T18:48:59.985Z,14.23
2023-01-27T18:51:45.488Z,14.53
2023-01-27T18:54:31.047Z,11.97
2023-01-27T18:57:16.647Z,12.93
2023-01-27T19:00:02.028Z,13.53
2023-01-27T19:02:53.726Z,13.53
2023-01-27T19:05:40.543Z,14.30
2023-01-27T19:08:26.290Z,14.27
2023-01-27T19:11:16.030Z,14.10
2023-01-27T19:14:01.638Z,14.03
2023-01-27T19:16:47.211Z,14.77
2023-01-27T19:19:32.661Z,15.33
2023-01-27T19:22:20.817Z,14.43
2023-01-27T19:25:06.856Z,12.27
2023-01-27T19:27:55.715Z,15.70
2023-01-27T19:30:41.079Z,13.20
2023-01-27T19:33:28.221Z,13.37
2023-01-27T19:36:31.181Z,16.80
2023-01-27T19:39:19.909Z,14.20
2023-01-27T19:42:05.129Z,12.47
2023-01-27T19:44:50.562Z,15.47
2023-01-27T19:47:35.995Z,13.63
2023-01-27T19:50:24.884Z,15.87
2023-01-27T19:53:11.356Z,12.43
2023-01-27T19:55:59.042Z,15.20
2023-01-27T19:58:53.602Z,12.13
2023-01-27T20:01:39.149Z,13.02
2023-01-27T20:04:26.617Z,12.93
2023-01-27T20:07:12.893Z,13.23
2023-01-27T20:09:58.123Z,11.80
2023-01-27T20:12:44.674Z,12.53
2023-01-27T20:15:33.001Z,11.73
2023-01-27T20:18:19.032Z,13.73
2023-01-27T20:21:04.813Z,10.90
2023-01-27T20:23:50.212Z,12.90
2023-01-27T20:26:37.522Z,11.80
2023-01-27T20:29:22.774Z,14.33
2023-01-27T20:32:09.565Z,12.63
2023-01-27T20:34:59.145Z,12.73
2023-01-27T20:37:47.744Z,13.47
2023-01-27T20:40:33.120Z,13.27
2023-01-27T20:43:33.551Z,12.60
2023-01-27T20:46:21.042Z,15.53
2023-01-27T20:49:06.799Z,10.93
2023-01-27T20:51:52.828Z,12.27
2023-01-27T20:54:38.089Z,11.83
2023-01-27T20:57:25.369Z,14.27
2023-01-27T21:00:19.936Z,16.10
2023-01-27T21:03:05.592Z,17.43
2023-01-27T21:05:51.074Z,18.90
2023-01-27T21:08:37.105Z,13.70
2023-01-27T21:11:22.542Z,21.17
2023-01-27T21:14:08.292Z,14.50
2023-01-27T21:16:53.632Z,14.97
2023-01-27T21:19:39.161Z,16.87
2023-01-27T21:22:24.843Z,14.33
2023-01-27T21:25:10.285Z,15.37
2023-01-27T21:27:55.726Z,16.23
2023-01-27T21:30:41.616Z,17.03
2023-01-27T21:33:26.994Z,16.67
2023-01-27T21:36:13.301Z,16.23
2023-01-27T21:38:58.845Z,14.37
2023-01-27T21:41:52.960Z,14.87
2023-01-27T21:44:56.987Z,14.07
2023-01-27T21:47:43.034Z,16.63
2023-01-27T21:50:28.253Z,13.17
2023-01-27T21:53:13.960Z,15.90
2023-01-27T21:56:08.078Z,14.13
2023-01-27T21:58:53.486Z,13.98
2023-01-27T22:01:39.157Z,13.33
2023-01-27T22:04:24.881Z,16.47
2023-01-27T22:07:12.963Z,14.73
2023-01-27T22:09:58.711Z,12.50
2023-01-27T22:12:44.990Z,16.50
2023-01-27T22:15:31.169Z,12.47
2023-01-27T22:18:16.978Z,14.53
2023-01-27T22:21:02.587Z,13.20
2023-01-27T22:23:48.039Z,16.53
2023-01-27T22:26:35.115Z,12.17
2023-01-27T22:29:20.355Z,13.10
2023-01-27T22:32:06.226Z,14.93
2023-01-27T22:34:51.573Z,15.27
2023-01-27T22:37:37.862Z,14.23
2023-01-27T22:40:23.565Z,12.83
2023-01-27T22:43:10.425Z,14.63
2023-01-27T22:46:01.571Z,14.97
2023-01-27T22:48:50.162Z,14.67
2023-01-27T22:51:35.888Z,16.27
2023-01-27T22:54:21.224Z,13.30
2023-01-27T22:57:06.713Z,14.63
2023-01-27T22:59:52.012Z,14.43
2023-01-27T23:02:37.615Z,13.63
2023-01-27T23:05:22.992Z,17.10
2023-01-27T23:08:08.733Z,13.93
2023-01-27T23:10:54.103Z,14.03
2023-01-27T23:13:39.385Z,12.77
2023-01-27T23:16:24.980Z,12.90
2023-01-27T23:19:10.969Z,15.73
2023-01-27T23:21:56.512Z,14.57
2023-01-27T23:24:41.982Z,14.97
2023-01-27T23:27:28.647Z,16.13
2023-01-27T23:30:14.331Z,15.80
2023-01-27T23:32:59.613Z,13.73
2023-01-27T23:35:45.512Z,15.67
2023-01-27T23:38:33.093Z,16.07
2023-01-27T23:41:20.387Z,16.83
2023-01-27T23:44:05.596Z,16.37
2023-01-27T23:46:51.406Z,17.17
2023-01-27T23:49:36.715Z,16.83
2023-01-27T23:52:22.377Z,16.80
2023-01-27T23:55:09.400Z,16.93
2023-01-27T23:57:54.618Z,14.83
